createdAt,value
2022-12-26T00:00:18.184Z,8.10
2022-12-26T00:02:49.561Z,8.11
2022-12-26T00:05:20.868Z,8.13
2022-12-26T00:07:52.203Z,8.16
2022-12-26T00:10:23.519Z,8.16
2022-12-26T00:12:54.866Z,8.16
2022-12-26T00:15:46.186Z,8.17
2022-12-26T00:18:17.452Z,8.17
2022-12-26T00:20:48.769Z,8.18
2022-12-26T00:23:20.040Z,8.17
2022-12-26T00:25:51.305Z,8.16
2022-12-26T00:28:22.632Z,8.18
2022-12-26T00:30:53.895Z,8.19
2022-12-26T00:33:25.171Z,8.21
2022-12-26T00:36:02.206Z,8.09
2022-12-26T00:38:35.015Z,8.21
2022-12-26T00:41:07.321Z,8.21
2022-12-26T00:43:38.815Z,8.18
2022-12-26T00:46:11.033Z,8.00
2022-12-26T00:48:42.994Z,8.17
2022-12-26T00:51:15.201Z,8.17
2022-12-26T00:53:46.762Z,8.17
2022-12-26T00:56:18.150Z,8.16
2022-12-26T00:58:49.418Z,8.22
2022-12-26T01:01:22.752Z,8.22
2022-12-26T01:03:54.182Z,8.24
2022-12-26T01:06:25.857Z,8.23
2022-12-26T01:08:59.367Z,8.27
2022-12-26T01:11:42.514Z,8.29
2022-12-26T01:14:17.163Z,8.29
2022-12-26T01:16:48.542Z,8.30
2022-12-26T01:19:19.904Z,8.30
2022-12-26T01:21:51.163Z,8.29
2022-12-26T01:24:22.525Z,8.31
2022-12-26T01:26:53.775Z,8.31
2022-12-26T01:29:25.039Z,8.32
2022-12-26T01:31:56.351Z,8.35
2022-12-26T01:34:27.664Z,8.29
2022-12-26T01:36:58.914Z,8.36
2022-12-26T01:39:30.272Z,8.36
2022-12-26T01:42:01.656Z,8.37
2022-12-26T01:45:21.402Z,8.35
2022-12-26T01:48:08.414Z,8.36
2022-12-26T01:50:51.755Z,8.36
2022-12-26T01:53:34.683Z,8.36
2022-12-26T01:56:08.444Z,8.36
2022-12-26T01:58:47.056Z,8.35
2022-12-26T02:01:20.674Z,8.17
2022-12-26T02:04:18.482Z,8.33
2022-12-26T02:06:50.492Z,8.33
2022-12-26T02:09:22.076Z,8.33
2022-12-26T02:12:34.406Z,8.20
2022-12-26T02:14:56.200Z,8.31
2022-12-26T02:17:28.389Z,8.23
2022-12-26T02:20:22.365Z,8.35
2022-12-26T02:23:15.411Z,8.36
2022-12-26T02:26:11.664Z,8.38
2022-12-26T02:28:58.249Z,8.38
2022-12-26T02:31:50.522Z,8.37
2022-12-26T02:34:57.404Z,8.36
2022-12-26T02:37:46.008Z,8.24
2022-12-26T02:40:46.336Z,8.28
2022-12-26T02:43:37.584Z,8.40
2022-12-26T02:46:48.330Z,8.40
2022-12-26T02:49:56.136Z,8.26
2022-12-26T02:53:03.993Z,8.37
2022-12-26T02:55:57.430Z,8.31
2022-12-26T02:59:01.863Z,8.25
2022-12-26T03:02:02.704Z,8.38
2022-12-26T03:04:55.887Z,8.31
2022-12-26T03:07:52.459Z,8.43
2022-12-26T03:10:53.692Z,8.39
2022-12-26T03:13:30.256Z,8.43
2022-12-26T03:16:24.518Z,8.44
2022-12-26T03:19:01.070Z,8.44
2022-12-26T03:21:40.066Z,8.40
2022-12-26T03:24:14.784Z,8.46
2022-12-26T03:26:53.801Z,8.46
2022-12-26T03:30:03.324Z,8.47
2022-12-26T03:32:43.631Z,8.47
2022-12-26T03:35:15.704Z,8.43
2022-12-26T03:38:03.090Z,8.48
2022-12-26T03:41:17.943Z,8.38
2022-12-26T03:44:59.026Z,8.49
2022-12-26T03:48:00.088Z,8.48
2022-12-26T03:50:56.345Z,8.48
2022-12-26T03:54:14.131Z,8.51
2022-12-26T03:57:08.742Z,8.36
2022-12-26T04:00:08.201Z,8.40
2022-12-26T04:03:02.415Z,8.40
2022-12-26T04:05:56.095Z,8.49
2022-12-26T04:08:55.224Z,8.51
2022-12-26T04:11:45.228Z,8.44
2022-12-26T04:14:54.784Z,8.55
2022-12-26T04:17:51.818Z,8.55
2022-12-26T04:20:40.864Z,8.56
2022-12-26T04:23:43.243Z,8.50
2022-12-26T04:26:43.813Z,8.51
2022-12-26T04:29:33.875Z,8.49
2022-12-26T04:32:31.953Z,8.37
2022-12-26T04:35:35.310Z,8.48
2022-12-26T04:38:27.579Z,8.40
2022-12-26T04:41:20.303Z,8.40
2022-12-26T04:44:09.643Z,8.36
2022-12-26T04:46:47.126Z,8.49
2022-12-26T04:49:37.644Z,8.40
2022-12-26T04:52:12.417Z,8.46
2022-12-26T04:54:43.699Z,8.53
2022-12-26T04:57:14.959Z,8.55
2022-12-26T04:59:46.223Z,8.56
2022-12-26T05:02:36.304Z,8.34
2022-12-26T05:05:28.410Z,8.55
2022-12-26T05:08:18.951Z,8.52
2022-12-26T05:10:50.296Z,8.53
2022-12-26T05:13:21.564Z,8.44
2022-12-26T05:16:11.727Z,8.52
2022-12-26T05:19:01.711Z,8.58
2022-12-26T05:21:51.848Z,8.58
2022-12-26T05:24:42.504Z,8.52
2022-12-26T05:27:34.613Z,8.60
2022-12-26T05:30:07.279Z,8.62
2022-12-26T05:32:57.015Z,8.62
2022-12-26T05:35:28.331Z,8.52
2022-12-26T05:37:59.808Z,8.63
2022-12-26T05:40:31.299Z,8.66
2022-12-26T05:43:02.610Z,8.66
2022-12-26T05:45:33.891Z,8.60
2022-12-26T05:48:05.477Z,8.55
2022-12-26T05:50:36.904Z,8.68
2022-12-26T05:53:08.415Z,8.67
2022-12-26T05:55:40.172Z,8.67
2022-12-26T05:58:11.533Z,8.50
2022-12-26T06:00:42.847Z,8.65
2022-12-26T06:03:14.335Z,8.66
2022-12-26T06:05:45.825Z,8.68
2022-12-26T06:08:17.090Z,8.68
2022-12-26T06:10:48.385Z,8.65
2022-12-26T06:13:19.727Z,8.66
2022-12-26T06:15:51.022Z,8.58
2022-12-26T06:18:22.331Z,8.66
2022-12-26T06:20:53.680Z,8.68
2022-12-26T06:23:25.072Z,8.69
2022-12-26T06:25:57.226Z,8.71
2022-12-26T06:28:28.556Z,8.74
2022-12-26T06:31:04.669Z,8.73
2022-12-26T06:33:36.386Z,8.71
2022-12-26T06:36:10.875Z,8.66
2022-12-26T06:38:42.967Z,8.70
2022-12-26T06:41:16.978Z,8.70
2022-12-26T06:43:48.888Z,8.61
2022-12-26T06:46:22.725Z,8.70
2022-12-26T06:48:54.274Z,8.71
2022-12-26T06:51:26.603Z,8.72
2022-12-26T06:54:00.206Z,8.62
2022-12-26T06:56:33.201Z,8.72
2022-12-26T06:59:05.684Z,8.73
2022-12-26T07:01:37.707Z,8.70
2022-12-26T07:04:12.270Z,8.78
2022-12-26T07:06:43.572Z,8.65
2022-12-26T07:09:18.039Z,8.81
2022-12-26T07:11:50.922Z,8.75
2022-12-26T07:14:22.299Z,8.84
2022-12-26T07:16:53.636Z,8.73
2022-12-26T07:19:25.047Z,8.87
2022-12-26T07:21:56.412Z,8.86
2022-12-26T07:24:27.895Z,8.85
2022-12-26T07:26:59.174Z,8.89
2022-12-26T07:29:30.454Z,8.78
2022-12-26T07:32:01.864Z,8.90
2022-12-26T07:34:33.169Z,8.91
2022-12-26T07:37:04.553Z,8.92
2022-12-26T07:39:37.602Z,8.94
2022-12-26T07:42:08.884Z,8.93
2022-12-26T07:44:40.214Z,8.95
2022-12-26T07:47:11.471Z,8.96
2022-12-26T07:49:42.798Z,8.96
2022-12-26T07:52:14.097Z,8.91
2022-12-26T07:54:45.537Z,8.97
2022-12-26T07:57:47.038Z,8.95
2022-12-26T08:00:09.524Z,8.95
2022-12-26T08:02:41.335Z,8.92
2022-12-26T08:05:12.921Z,8.89
2022-12-26T08:07:47.327Z,8.84
2022-12-26T08:10:18.766Z,8.80
2022-12-26T08:12:50.047Z,8.78
2022-12-26T08:15:21.317Z,8.67
2022-12-26T08:17:52.613Z,8.70
2022-12-26T08:20:23.918Z,8.62
2022-12-26T08:25:31.338Z,8.57
2022-12-26T08:28:02.657Z,8.62
2022-12-26T08:30:34.075Z,8.70
2022-12-26T08:33:05.391Z,8.79
2022-12-26T08:35:40.165Z,8.82
2022-12-26T08:38:11.496Z,8.90
2022-12-26T08:40:44.302Z,8.94
2022-12-26T08:43:39.168Z,8.94
2022-12-26T08:46:10.257Z,8.84
2022-12-26T08:48:41.858Z,8.87
2022-12-26T08:51:16.628Z,9.01
2022-12-26T08:53:51.882Z,9.06
2022-12-26T08:56:25.736Z,9.07
2022-12-26T08:58:57.069Z,9.11
2022-12-26T09:01:30.770Z,9.14
2022-12-26T09:04:03.873Z,9.15
2022-12-26T09:06:37.502Z,9.18
2022-12-26T09:09:13.805Z,9.16
2022-12-26T09:11:45.402Z,9.20
2022-12-26T09:14:16.694Z,9.23
2022-12-26T09:16:50.692Z,9.24
2022-12-26T09:19:22.710Z,9.24
2022-12-26T09:22:14.165Z,9.23
2022-12-26T09:24:45.541Z,9.25
2022-12-26T09:27:16.858Z,9.27
2022-12-26T09:29:48.155Z,9.20
2022-12-26T09:32:19.479Z,9.17
2022-12-26T09:34:50.875Z,9.17
2022-12-26T09:37:22.284Z,9.30
2022-12-26T09:39:53.994Z,9.28
2022-12-26T09:42:57.825Z,9.03
2022-12-26T09:45:47.896Z,9.38
2022-12-26T09:48:31.404Z,9.32
2022-12-26T09:51:02.918Z,9.29
2022-12-26T09:53:36.676Z,9.38
2022-12-26T09:56:23.664Z,9.39
2022-12-26T09:59:13.456Z,9.33
2022-12-26T10:01:45.275Z,9.40
2022-12-26T10:04:28.963Z,9.38
2022-12-26T10:07:27.534Z,9.27
2022-12-26T10:10:11.180Z,9.43
2022-12-26T10:12:54.646Z,9.45
2022-12-26T10:15:44.120Z,9.41
2022-12-26T10:18:34.680Z,9.38
2022-12-26T10:21:44.336Z,9.52
2022-12-26T10:24:20.546Z,9.57
2022-12-26T10:26:55.561Z,9.56
2022-12-26T10:29:41.139Z,9.44
2022-12-26T10:32:47.982Z,9.50
2022-12-26T10:35:42.502Z,9.51
2022-12-26T10:38:25.633Z,9.53
2022-12-26T10:41:06.047Z,9.50
2022-12-26T10:43:42.608Z,9.74
2022-12-26T10:47:07.472Z,9.81
2022-12-26T10:49:38.759Z,9.81
2022-12-26T10:52:10.603Z,9.75
2022-12-26T10:54:49.179Z,9.77
2022-12-26T10:57:21.893Z,9.86
2022-12-26T10:59:55.409Z,9.89
2022-12-26T11:02:30.726Z,9.90
2022-12-26T11:05:27.289Z,9.64
2022-12-26T11:08:12.647Z,9.59
2022-12-26T11:11:03.224Z,9.63
2022-12-26T11:13:42.311Z,9.62
2022-12-26T11:16:25.495Z,9.52
2022-12-26T11:18:58.049Z,9.57
2022-12-26T11:21:32.047Z,9.70
2022-12-26T11:24:09.074Z,9.75
2022-12-26T11:26:40.484Z,9.78
2022-12-26T11:29:15.877Z,9.75
2022-12-26T11:32:00.494Z,9.72
2022-12-26T11:34:46.032Z,9.61
2022-12-26T11:37:31.501Z,9.77
2022-12-26T11:40:03.152Z,9.74
2022-12-26T11:42:34.650Z,9.62
2022-12-26T11:45:11.890Z,9.82
2022-12-26T11:47:45.697Z,9.76
2022-12-26T11:50:21.533Z,9.83
2022-12-26T11:52:55.852Z,9.83
2022-12-26T11:55:37.958Z,9.87
2022-12-26T11:58:09.433Z,9.87
2022-12-26T12:00:43.774Z,9.87
2022-12-26T12:03:21.362Z,9.87
2022-12-26T12:06:02.892Z,9.80
2022-12-26T12:09:15.080Z,9.76
2022-12-26T12:12:01.763Z,9.73
2022-12-26T12:14:54.784Z,9.73
2022-12-26T12:17:33.431Z,9.65
2022-12-26T12:20:30.134Z,9.66
2022-12-26T12:23:23.735Z,9.66
2022-12-26T12:26:06.136Z,9.66
2022-12-26T12:29:01.630Z,9.72
2022-12-26T12:31:53.258Z,9.58
2022-12-26T12:35:02.887Z,9.70
2022-12-26T12:37:59.847Z,9.73
2022-12-26T12:40:50.401Z,9.72
2022-12-26T12:43:42.979Z,9.72
2022-12-26T12:46:17.334Z,9.69
2022-12-26T12:49:07.102Z,9.68
2022-12-26T12:51:50.457Z,9.69
2022-12-26T12:54:41.283Z,9.69
2022-12-26T12:57:22.434Z,9.74
2022-12-26T13:00:12.010Z,9.77
2022-12-26T13:03:18.629Z,9.83
2022-12-26T13:06:05.677Z,9.89
2022-12-26T13:08:42.795Z,9.92
2022-12-26T13:11:31.537Z,10.16
2022-12-26T13:14:27.059Z,10.25
2022-12-26T13:17:05.244Z,10.36
2022-12-26T13:19:51.355Z,10.39
2022-12-26T13:22:50.359Z,10.27
2022-12-26T13:25:24.599Z,10.11
2022-12-26T13:28:09.118Z,9.90
2022-12-26T13:30:40.498Z,9.89
2022-12-26T13:33:15.899Z,9.81
2022-12-26T13:35:52.498Z,9.68
2022-12-26T13:38:26.595Z,9.54
2022-12-26T13:41:20.620Z,9.34
2022-12-26T13:44:24.607Z,9.04
2022-12-26T13:46:58.816Z,9.00
2022-12-26T13:49:37.131Z,8.91
2022-12-26T13:52:11.372Z,8.83
2022-12-26T13:54:50.354Z,8.77
2022-12-26T13:57:44.465Z,8.59
2022-12-26T14:00:42.954Z,8.48
2022-12-26T14:04:11.486Z,8.31
2022-12-26T14:06:54.630Z,8.17
2022-12-26T14:09:38.728Z,8.11
2022-12-26T14:12:36.589Z,8.07
2022-12-26T14:15:46.032Z,8.01
2022-12-26T14:18:32.463Z,7.96
2022-12-26T14:21:25.693Z,7.85
2022-12-26T14:24:17.279Z,7.78
2022-12-26T14:27:17.940Z,7.78
2022-12-26T14:30:01.229Z,7.75
2022-12-26T14:32:53.842Z,7.69
2022-12-26T14:35:27.864Z,7.70
2022-12-26T14:38:28.515Z,7.65
2022-12-26T14:41:30.756Z,7.59
2022-12-26T14:44:37.376Z,7.46
2022-12-26T14:47:09.987Z,7.31
2022-12-26T14:49:42.218Z,7.20
2022-12-26T14:52:25.753Z,7.13
2022-12-26T14:54:57.189Z,6.99
2022-12-26T14:57:48.690Z,7.07
2022-12-26T15:00:22.994Z,7.05
2022-12-26T15:03:03.523Z,7.05
2022-12-26T15:05:37.930Z,7.01
2022-12-26T15:08:47.489Z,6.94
2022-12-26T15:11:44.074Z,6.90
2022-12-26T15:14:27.514Z,6.86
2022-12-26T15:17:13.956Z,6.73
2022-12-26T15:20:14.169Z,6.74
2022-12-26T15:23:31.977Z,6.64
2022-12-26T15:26:36.944Z,6.52
2022-12-26T15:29:14.555Z,6.48
2022-12-26T15:32:03.623Z,6.48
2022-12-26T15:35:11.507Z,6.43
2022-12-26T15:37:59.473Z,6.38
2022-12-26T15:40:42.328Z,6.34
2022-12-26T15:43:53.219Z,6.19
2022-12-26T15:46:31.124Z,6.08
2022-12-26T15:49:19.107Z,5.89
2022-12-26T15:52:13.438Z,5.86
2022-12-26T15:54:56.800Z,5.53
2022-12-26T15:58:05.147Z,5.61
2022-12-26T16:00:51.776Z,5.46
2022-12-26T16:03:34.299Z,5.47
2022-12-26T16:06:48.682Z,5.24
2022-12-26T16:09:45.144Z,5.33
2022-12-26T16:12:24.837Z,5.35
2022-12-26T16:15:16.204Z,5.40
2022-12-26T16:17:48.821Z,5.41
2022-12-26T16:20:47.902Z,5.38
2022-12-26T16:23:23.497Z,5.43
2022-12-26T16:25:59.422Z,5.46
2022-12-26T16:28:40.330Z,5.41
2022-12-26T16:31:20.891Z,5.30
2022-12-26T16:33:54.745Z,5.20
2022-12-26T16:36:31.873Z,5.11
2022-12-26T16:39:09.111Z,5.03
2022-12-26T16:42:27.795Z,5.00
2022-12-26T16:45:00.030Z,4.95
2022-12-26T16:47:32.357Z,5.01
2022-12-26T16:50:05.450Z,5.03
2022-12-26T16:52:45.875Z,5.06
2022-12-26T16:55:50.225Z,4.97
2022-12-26T16:58:25.838Z,5.18
2022-12-26T17:01:07.722Z,5.23
2022-12-26T17:03:50.424Z,5.31
2022-12-26T17:06:59.291Z,5.29
2022-12-26T17:09:38.240Z,5.22
2022-12-26T17:12:20.262Z,5.12
2022-12-26T17:14:53.434Z,5.10
2022-12-26T17:17:24.789Z,5.06
2022-12-26T17:20:17.873Z,4.92
2022-12-26T17:22:50.835Z,5.09
2022-12-26T17:25:30.842Z,5.09
2022-12-26T17:28:08.305Z,5.21
2022-12-26T17:30:42.812Z,5.28
2022-12-26T17:33:21.965Z,5.29
2022-12-26T17:37:19.263Z,5.12
2022-12-26T17:39:20.161Z,5.01
2022-12-26T17:41:54.367Z,5.18
2022-12-26T17:44:43.748Z,5.10
2022-12-26T17:47:27.024Z,5.10
2022-12-26T17:49:58.375Z,5.00
2022-12-26T17:52:30.289Z,4.86
2022-12-26T17:55:04.063Z,4.73
2022-12-26T17:57:35.384Z,4.63
2022-12-26T18:00:14.830Z,4.54
2022-12-26T18:02:46.442Z,4.47
2022-12-26T18:05:19.687Z,4.38
2022-12-26T18:07:51.854Z,4.26
2022-12-26T18:10:26.314Z,4.19
2022-12-26T18:12:58.653Z,4.11
2022-12-26T18:15:31.300Z,3.83
2022-12-26T18:18:02.743Z,3.69
2022-12-26T18:20:34.023Z,3.90
2022-12-26T18:23:05.830Z,3.91
2022-12-26T18:25:37.984Z,3.90
2022-12-26T18:28:12.572Z,3.87
2022-12-26T18:30:44.397Z,3.86
2022-12-26T18:33:15.868Z,3.83
2022-12-26T18:35:47.921Z,3.73
2022-12-26T18:38:20.849Z,3.62
2022-12-26T18:40:57.729Z,3.70
2022-12-26T18:43:29.132Z,3.65
2022-12-26T18:46:00.447Z,3.48
2022-12-26T18:48:31.776Z,3.60
2022-12-26T18:51:04.747Z,3.56
2022-12-26T18:53:36.113Z,3.51
2022-12-26T18:56:12.159Z,3.49
2022-12-26T18:58:43.696Z,3.45
2022-12-26T19:01:17.753Z,3.41
2022-12-26T19:03:49.495Z,3.28
2022-12-26T19:06:26.455Z,3.47
2022-12-26T19:08:58.456Z,3.53
2022-12-26T19:11:29.778Z,3.57
2022-12-26T19:14:01.100Z,3.51
2022-12-26T19:16:32.417Z,3.61
2022-12-26T19:19:04.521Z,3.55
2022-12-26T19:21:35.918Z,3.54
2022-12-26T19:24:07.446Z,3.34
2022-12-26T19:26:38.875Z,3.45
2022-12-26T19:29:10.836Z,3.41
2022-12-26T19:31:42.336Z,3.41
2022-12-26T19:34:13.761Z,3.31
2022-12-26T19:36:45.056Z,3.36
2022-12-26T19:39:16.326Z,3.28
2022-12-26T19:41:47.657Z,3.34
2022-12-26T19:44:18.958Z,3.21
2022-12-26T19:46:50.240Z,3.28
2022-12-26T19:49:42.358Z,3.15
2022-12-26T19:52:13.863Z,3.18
2022-12-26T19:54:45.237Z,3.10
2022-12-26T19:57:16.735Z,3.14
2022-12-26T19:59:48.023Z,3.03
2022-12-26T20:02:19.515Z,3.18
2022-12-26T20:04:50.896Z,3.06
2022-12-26T20:07:22.203Z,3.15
2022-12-26T20:09:53.510Z,3.10
2022-12-26T20:12:24.915Z,2.93
2022-12-26T20:14:56.180Z,2.95
2022-12-26T20:17:27.620Z,3.00
2022-12-26T20:19:59.059Z,2.92
2022-12-26T20:22:30.392Z,2.72
2022-12-26T20:25:01.704Z,2.98
2022-12-26T20:27:33.027Z,2.81
2022-12-26T20:30:05.060Z,2.74
2022-12-26T20:32:36.430Z,2.68
2022-12-26T20:35:08.205Z,2.83
2022-12-26T20:37:39.486Z,2.84
2022-12-26T20:40:11.180Z,2.71
2022-12-26T20:42:42.469Z,2.83
2022-12-26T20:45:14.912Z,2.80
2022-12-26T20:47:46.177Z,2.77
2022-12-26T20:50:17.509Z,2.74
2022-12-26T20:52:48.800Z,2.69
2022-12-26T20:55:20.168Z,2.66
2022-12-26T20:57:51.532Z,2.62
2022-12-26T21:00:22.985Z,2.54
2022-12-26T21:02:54.454Z,2.56
2022-12-26T21:05:26.878Z,2.59
2022-12-26T21:07:58.144Z,2.59
2022-12-26T21:10:29.733Z,2.52
2022-12-26T21:13:00.998Z,2.60
2022-12-26T21:15:33.014Z,2.62
2022-12-26T21:18:05.252Z,2.63
2022-12-26T21:20:37.236Z,2.64
2022-12-26T21:23:08.620Z,2.75
2022-12-26T21:25:39.947Z,2.72
2022-12-26T21:28:11.354Z,2.87
2022-12-26T21:30:45.763Z,2.94
2022-12-26T21:33:17.156Z,3.00
2022-12-26T21:35:52.924Z,2.96
2022-12-26T21:38:28.516Z,2.95
2022-12-26T21:40:59.850Z,2.79
2022-12-26T21:43:31.243Z,2.82
2022-12-26T21:46:12.508Z,2.79
2022-12-26T21:48:47.167Z,2.76
2022-12-26T21:51:21.631Z,2.62
2022-12-26T21:54:12.964Z,2.69
2022-12-26T21:56:44.247Z,2.55
2022-12-26T21:59:34.380Z,2.61
2022-12-26T22:02:26.108Z,2.63
2022-12-26T22:04:57.526Z,2.61
2022-12-26T22:07:29.085Z,2.61
2022-12-26T22:10:00.473Z,2.60
2022-12-26T22:12:50.519Z,2.51
2022-12-26T22:15:40.455Z,2.61
2022-12-26T22:18:11.786Z,2.58
2022-12-26T22:20:44.530Z,2.54
2022-12-26T22:23:16.060Z,2.33
2022-12-26T22:25:55.239Z,2.50
2022-12-26T22:28:28.903Z,2.43
2022-12-26T22:31:00.934Z,2.45
2022-12-26T22:33:32.943Z,2.52
2022-12-26T22:36:09.270Z,2.50
2022-12-26T22:38:40.544Z,2.48
2022-12-26T22:41:11.830Z,2.35
2022-12-26T22:43:43.235Z,2.46
2022-12-26T22:46:15.014Z,2.49
2022-12-26T22:48:46.348Z,2.50
2022-12-26T22:51:22.933Z,2.51
2022-12-26T22:54:00.355Z,2.48
2022-12-26T22:56:32.894Z,2.49
2022-12-26T22:59:04.208Z,2.39
2022-12-26T23:01:35.651Z,2.36
2022-12-26T23:04:07.403Z,2.38
2022-12-26T23:06:41.278Z,2.35
2022-12-26T23:09:15.493Z,2.23
2022-12-26T23:12:07.009Z,2.43
2022-12-26T23:14:38.540Z,2.50
2022-12-26T23:17:34.644Z,2.53
2022-12-26T23:20:25.959Z,2.49
2022-12-26T23:22:57.765Z,2.51
2022-12-26T23:25:30.068Z,2.50
2022-12-26T23:28:19.742Z,2.48
2022-12-26T23:30:51.475Z,2.47
2022-12-26T23:33:22.982Z,2.49
2022-12-26T23:35:54.305Z,2.24
2022-12-26T23:38:25.683Z,2.51
2022-12-26T23:40:57.061Z,2.07
2022-12-26T23:43:28.427Z,2.32
2022-12-26T23:46:00.597Z,2.53
2022-12-26T23:48:33.431Z,2.53
2022-12-26T23:51:07.474Z,2.50
2022-12-26T23:53:38.846Z,2.41
2022-12-26T23:56:10.467Z,2.43
2022-12-26T23:58:42.271Z,2.45
